Time;durP1;ratioP1;P1;durP2;ratioP2;P2;SDS_P1;SDS_P2;PMS_P1;PMS_P2;Temp;Humidity;BMP_temperature;BMP_pressure;BME280_temperature;BME280_humidity;BME280_pressure;Samples;Min_cycle;Max_cycle;Signal;HPM_P1;HPM_P2
2021/07/31 00:01:07;;;;;;;3.13;1.20;;;22.10;99.90;;;;;;5014384;28;20088;-69
2021/07/31 00:03:36;;;;;;;3.35;1.35;;;22.10;99.90;;;;;;5014133;28;20105;-69
2021/07/31 00:06:02;;;;;;;2.75;1.10;;;22.10;99.90;;;;;;5014287;28;20030;-70
2021/07/31 00:08:29;;;;;;;2.25;1.20;;;22.10;99.90;;;;;;5014319;28;20046;-70
2021/07/31 00:10:55;;;;;;;2.03;1.10;;;22.10;99.90;;;;;;5014517;28;20474;-72
2021/07/31 00:13:21;;;;;;;4.25;1.38;;;22.10;99.90;;;;;;5014369;28;20033;-69
2021/07/31 00:15:47;;;;;;;3.75;1.20;;;22.10;99.90;;;;;;5032208;28;20021;-72
2021/07/31 00:18:13;;;;;;;3.40;1.35;;;22.00;99.90;;;;;;5013665;28;20474;-72
2021/07/31 00:20:39;;;;;;;3.20;1.30;;;22.00;99.90;;;;;;5014025;28;20360;-71
2021/07/31 00:23:05;;;;;;;3.00;1.25;;;22.00;99.90;;;;;;5013963;28;20052;-72
2021/07/31 00:25:32;;;;;;;3.58;1.40;;;22.00;99.90;;;;;;5013737;28;20140;-72
2021/07/31 00:27:58;;;;;;;3.10;1.20;;;22.00;99.90;;;;;;5024656;28;20040;-71
2021/07/31 00:30:25;;;;;;;2.75;1.20;;;22.00;99.90;;;;;;5033706;28;20038;-72
2021/07/31 00:32:51;;;;;;;3.28;1.50;;;22.00;99.90;;;;;;5033380;28;20063;-71
2021/07/31 00:35:17;;;;;;;3.33;1.42;;;22.00;99.90;;;;;;5031259;28;20044;-71
2021/07/31 00:37:42;;;;;;;2.95;1.27;;;22.00;99.90;;;;;;5032119;28;20034;-72
2021/07/31 00:40:09;;;;;;;4.05;1.50;;;22.00;99.90;;;;;;5027197;28;20088;-72
2021/07/31 00:42:38;;;;;;;2.72;1.30;;;22.00;99.90;;;;;;5026578;28;20048;-72
2021/07/31 00:45:04;;;;;;;1.90;1.10;;;22.00;99.90;;;;;;5033367;28;20029;-70
2021/07/31 00:47:30;;;;;;;2.78;1.33;;;21.90;99.90;;;;;;5032940;28;20020;-69
2021/07/31 00:49:57;;;;;;;2.60;1.33;;;22.00;99.90;;;;;;5032978;28;20128;-70
2021/07/31 00:52:23;;;;;;;4.85;1.27;;;22.00;99.90;;;;;;5018588;28;20026;-70
2021/07/31 00:54:48;;;;;;;2.35;1.30;;;21.90;99.90;;;;;;5013087;28;20948;-69
2021/07/31 00:57:15;;;;;;;2.80;1.25;;;22.00;99.90;;;;;;5018621;28;20039;-70
2021/07/31 00:59:41;;;;;;;2.53;1.20;;;22.00;99.90;;;;;;5012994;28;20474;-71
2021/07/31 01:02:06;;;;;;;4.13;1.70;;;21.90;99.90;;;;;;5013046;28;20080;-69
2021/07/31 01:04:32;;;;;;;2.28;0.90;;;21.90;99.90;;;;;;5027359;28;20021;-69
2021/07/31 01:06:58;;;;;;;4.13;1.73;;;21.90;99.90;;;;;;5032817;28;20498;-70
2021/07/31 01:09:24;;;;;;;2.75;1.20;;;21.90;99.90;;;;;;5032897;28;20129;-70
2021/07/31 01:11:49;;;;;;;2.53;1.27;;;21.90;99.90;;;;;;5032692;28;20033;-71
2021/07/31 01:14:15;;;;;;;3.45;1.42;;;21.90;99.90;;;;;;5030171;28;20040;-71
2021/07/31 01:16:41;;;;;;;2.95;1.40;;;21.90;99.90;;;;;;5016501;28;20295;-70
2021/07/31 01:19:06;;;;;;;2.78;1.23;;;21.90;99.90;;;;;;5003201;28;20029;-69
2021/07/31 01:21:42;;;;;;;3.53;1.60;;;21.90;99.90;;;;;;5012537;28;20036;-70
2021/07/31 01:24:09;;;;;;;3.22;1.27;;;21.90;99.90;;;;;;4995278;28;20022;-70
2021/07/31 01:26:40;;;;;;;2.70;1.17;;;21.90;99.90;;;;;;5012583;28;20025;-69
2021/07/31 01:29:07;;;;;;;3.95;1.27;;;21.90;99.90;;;;;;5027939;28;20127;-71
2021/07/31 01:31:34;;;;;;;3.78;1.55;;;21.90;99.90;;;;;;5032324;28;20029;-70
2021/07/31 01:34:00;;;;;;;3.08;1.33;;;21.90;99.90;;;;;;5028828;28;20038;-69
2021/07/31 01:36:26;;;;;;;3.15;1.50;;;21.90;99.90;;;;;;5032260;28;20029;-70
2021/07/31 01:38:51;;;;;;;3.33;1.40;;;21.90;99.90;;;;;;5031686;28;20033;-70
2021/07/31 01:41:17;;;;;;;3.25;1.30;;;21.90;99.90;;;;;;5015224;28;20040;-72
2021/07/31 01:43:43;;;;;;;3.38;1.40;;;21.80;99.90;;;;;;5012108;28;20113;-71
2021/07/31 01:46:09;;;;;;;2.67;1.33;;;21.80;99.90;;;;;;5019676;28;20018;-70
2021/07/31 01:48:34;;;;;;;3.17;1.45;;;21.80;99.90;;;;;;5018696;28;20042;-69
2021/07/31 01:51:00;;;;;;;1.92;0.98;;;21.80;99.90;;;;;;5032065;28;20024;-69
2021/07/31 01:53:25;;;;;;;3.05;1.40;;;21.80;99.90;;;;;;5032378;28;20025;-71
2021/07/31 01:55:51;;;;;;;3.42;1.30;;;21.80;99.90;;;;;;5031871;28;20543;-70
2021/07/31 01:58:17;;;;;;;3.05;1.30;;;21.80;99.90;;;;;;5012862;28;20457;-69
2021/07/31 02:00:42;;;;;;;2.85;1.30;;;21.80;99.90;;;;;;5012048;28;20495;-69
2021/07/31 02:03:08;;;;;;;3.00;1.30;;;21.80;99.90;;;;;;5003289;28;20028;-69
2021/07/31 02:05:33;;;;;;;3.22;1.45;;;21.80;99.90;;;;;;5030367;28;20037;-69
2021/07/31 02:07:59;;;;;;;2.83;1.23;;;21.80;99.90;;;;;;5031719;28;20083;-69
2021/07/31 02:10:25;;;;;;;3.03;1.23;;;21.80;99.90;;;;;;5020103;28;20053;-69
2021/07/31 02:12:51;;;;;;;2.97;1.38;;;21.80;99.90;;;;;;5011755;28;20467;-70
2021/07/31 02:15:17;;;;;;;3.40;1.58;;;21.80;99.90;;;;;;5020705;28;20032;-70
2021/07/31 02:17:43;;;;;;;2.90;1.20;;;21.80;99.90;;;;;;5019062;28;20022;-69
2021/07/31 02:20:09;;;;;;;2.22;1.15;;;21.80;99.90;;;;;;5017254;28;20026;-69
2021/07/31 02:22:35;;;;;;;4.20;1.60;;;21.70;99.90;;;;;;5011571;28;20022;-70
2021/07/31 02:25:00;;;;;;;2.90;1.27;;;21.70;99.90;;;;;;5011888;28;20037;-69
2021/07/31 02:27:26;;;;;;;3.95;1.60;;;21.70;99.90;;;;;;5012239;28;20478;-69
2021/07/31 02:29:51;;;;;;;3.50;1.40;;;21.80;99.90;;;;;;5031197;28;20041;-70
2021/07/31 02:32:17;;;;;;;2.95;1.20;;;21.70;99.90;;;;;;5031520;28;20071;-71
2021/07/31 02:34:42;;;;;;;3.35;1.40;;;21.70;99.90;;;;;;5025097;28;20481;-70
2021/07/31 02:37:08;;;;;;;2.78;1.25;;;21.80;99.90;;;;;;5012534;28;20386;-70
2021/07/31 02:39:34;;;;;;;3.42;1.38;;;21.70;99.90;;;;;;5029478;28;20021;-71
2021/07/31 02:41:59;;;;;;;3.47;1.40;;;21.70;99.90;;;;;;5031369;28;20022;-72
2021/07/31 02:44:25;;;;;;;3.00;1.35;;;21.70;99.90;;;;;;5026418;28;20026;-70
2021/07/31 02:46:50;;;;;;;2.72;1.40;;;21.70;99.90;;;;;;5011259;28;20104;-70
2021/07/31 02:49:16;;;;;;;2.45;1.30;;;21.70;99.90;;;;;;5011477;28;20549;-70
2021/07/31 02:51:42;;;;;;;3.97;1.60;;;21.70;99.90;;;;;;5011372;28;20034;-70
2021/07/31 02:54:07;;;;;;;2.58;1.27;;;21.70;99.90;;;;;;5011648;28;20061;-71
2021/07/31 02:56:33;;;;;;;3.58;1.20;;;21.70;99.90;;;;;;5011347;28;20075;-71
2021/07/31 02:58:59;;;;;;;2.55;1.40;;;21.70;99.90;;;;;;5011575;28;20030;-69
2021/07/31 03:01:24;;;;;;;3.78;1.50;;;21.70;99.90;;;;;;5011632;28;20026;-70
2021/07/31 03:03:50;;;;;;;2.35;1.20;;;21.70;99.90;;;;;;5010963;28;20025;-71
2021/07/31 03:06:16;;;;;;;2.45;1.10;;;21.80;99.90;;;;;;5012453;28;20034;-69
2021/07/31 03:08:42;;;;;;;3.13;1.20;;;21.70;99.90;;;;;;5011181;28;20485;-69
2021/07/31 03:11:08;;;;;;;2.85;1.40;;;21.70;99.90;;;;;;5018686;28;20374;-69
2021/07/31 03:13:34;;;;;;;2.95;1.33;;;21.70;99.90;;;;;;5027738;28;20036;-70
2021/07/31 03:16:00;;;;;;;2.20;1.08;;;21.70;99.90;;;;;;5031379;28;20025;-71
2021/07/31 03:18:26;;;;;;;3.83;1.27;;;21.70;99.90;;;;;;5015627;28;20041;-69
2021/07/31 03:20:53;;;;;;;3.78;1.38;;;21.70;99.90;;;;;;5014950;28;20068;-70
2021/07/31 03:23:22;;;;;;;2.08;1.30;;;21.70;99.90;;;;;;5015213;28;20473;-71
2021/07/31 03:25:48;;;;;;;2.58;1.30;;;21.70;99.90;;;;;;5028808;28;20028;-71
2021/07/31 03:28:14;;;;;;;3.42;1.35;;;21.70;99.90;;;;;;5034385;28;20389;-71
2021/07/31 03:30:44;;;;;;;3.40;1.40;;;21.70;99.90;;;;;;5027533;28;20025;-72
2021/07/31 03:33:11;;;;;;;2.92;1.25;;;21.70;99.90;;;;;;5027949;28;20044;-71
2021/07/31 03:35:38;;;;;;;4.25;1.50;;;21.70;99.90;;;;;;5033837;28;20079;-71
2021/07/31 03:38:03;;;;;;;3.22;1.30;;;21.70;99.90;;;;;;5034151;28;20041;-71
2021/07/31 03:40:29;;;;;;;2.10;1.17;;;21.70;99.90;;;;;;5025154;28;20072;-70
2021/07/31 03:42:55;;;;;;;3.35;1.50;;;21.60;99.90;;;;;;5023776;28;20076;-71
2021/07/31 03:45:21;;;;;;;2.63;1.45;;;21.60;99.90;;;;;;5014705;28;20021;-72
2021/07/31 03:47:46;;;;;;;3.90;1.05;;;21.60;99.90;;;;;;5014430;28;20033;-71
2021/07/31 03:50:12;;;;;;;3.90;1.45;;;21.60;99.90;;;;;;4997242;28;20049;-72
2021/07/31 03:52:37;;;;;;;2.13;1.20;;;21.60;99.90;;;;;;5033216;28;20504;-71
2021/07/31 03:55:05;;;;;;;3.60;1.30;;;21.60;99.90;;;;;;5034355;28;20096;-73
2021/07/31 03:57:31;;;;;;;2.90;1.40;;;21.60;99.90;;;;;;5033873;28;20029;-69
2021/07/31 03:59:56;;;;;;;2.35;1.13;;;21.70;99.90;;;;;;5016244;28;20034;-69
2021/07/31 04:02:22;;;;;;;4.00;1.38;;;21.70;99.90;;;;;;5017563;28;20390;-72
2021/07/31 04:04:48;;;;;;;3.35;1.40;;;21.60;99.90;;;;;;5023943;28;20112;-71
2021/07/31 04:07:13;;;;;;;3.13;1.30;;;21.60;99.90;;;;;;5014516;28;20381;-70
2021/07/31 04:09:39;;;;;;;3.20;1.30;;;21.60;99.90;;;;;;5018194;28;20477;-69
2021/07/31 04:12:05;;;;;;;3.47;1.23;;;21.60;99.90;;;;;;5031700;28;20110;-69
2021/07/31 04:14:30;;;;;;;2.70;1.20;;;21.60;99.90;;;;;;5030139;28;20029;-69
2021/07/31 04:16:56;;;;;;;3.63;1.48;;;21.60;99.90;;;;;;5014471;28;20347;-70
2021/07/31 04:19:22;;;;;;;3.28;1.30;;;21.60;99.90;;;;;;5014019;28;20378;-68
2021/07/31 04:21:53;;;;;;;2.78;1.50;;;21.50;99.90;;;;;;5013918;28;20026;-71
2021/07/31 04:24:20;;;;;;;3.58;1.45;;;21.50;99.90;;;;;;5013994;28;20478;-71
2021/07/31 04:26:46;;;;;;;2.55;1.30;;;21.50;99.90;;;;;;5012585;28;20030;-71
2021/07/31 04:29:12;;;;;;;2.67;1.50;;;21.50;99.90;;;;;;5013793;28;20076;-70
2021/07/31 04:31:37;;;;;;;3.08;1.50;;;21.50;99.90;;;;;;5013715;28;20022;-71
2021/07/31 04:34:03;;;;;;;2.75;1.27;;;21.50;99.90;;;;;;5013834;28;20025;-69
2021/07/31 04:36:31;;;;;;;2.88;1.38;;;21.50;99.90;;;;;;5021344;28;20029;-69
2021/07/31 04:38:56;;;;;;;2.30;1.17;;;21.50;99.90;;;;;;5022708;28;20030;-69
2021/07/31 04:41:22;;;;;;;2.20;1.38;;;21.50;99.90;;;;;;5013612;28;20071;-68
2021/07/31 04:43:47;;;;;;;3.97;1.65;;;21.50;99.90;;;;;;5014412;28;20030;-69
2021/07/31 04:46:13;;;;;;;3.08;1.45;;;21.50;99.90;;;;;;5013655;28;20029;-71
2021/07/31 04:48:39;;;;;;;3.20;1.40;;;21.50;99.90;;;;;;5013106;28;20049;-72
2021/07/31 04:51:04;;;;;;;3.75;1.40;;;21.60;99.90;;;;;;5013513;28;20462;-72
2021/07/31 04:53:31;;;;;;;3.10;1.30;;;21.60;99.90;;;;;;5013123;28;20079;-70
2021/07/31 04:55:57;;;;;;;2.83;1.48;;;21.60;99.90;;;;;;5013473;28;20033;-72
2021/07/31 04:58:23;;;;;;;3.13;1.38;;;21.60;99.90;;;;;;5013263;28;20034;-70
2021/07/31 05:00:50;;;;;;;3.90;1.30;;;21.60;99.90;;;;;;5015131;28;20072;-70
2021/07/31 05:03:15;;;;;;;2.20;1.20;;;21.70;99.90;;;;;;5013315;28;20108;-70
2021/07/31 05:05:45;;;;;;;3.75;1.40;;;21.70;99.90;;;;;;5012907;28;20465;-72
2021/07/31 05:08:11;;;;;;;2.92;1.42;;;21.70;99.90;;;;;;5013104;28;20030;-71
2021/07/31 05:10:41;;;;;;;3.22;1.55;;;21.70;99.90;;;;;;5012866;28;20030;-72
2021/07/31 05:13:07;;;;;;;5.30;1.50;;;21.70;99.90;;;;;;5013261;28;20026;-71
2021/07/31 05:15:35;;;;;;;2.83;1.30;;;21.70;99.90;;;;;;5012843;28;20045;-72
2021/07/31 05:18:00;;;;;;;4.22;1.55;;;21.80;99.90;;;;;;5013309;28;20068;-70
2021/07/31 05:20:26;;;;;;;3.35;1.45;;;21.80;99.90;;;;;;5013144;28;20053;-72
2021/07/31 05:22:53;;;;;;;3.63;1.50;;;21.80;99.90;;;;;;5012716;28;20378;-73
2021/07/31 05:25:19;;;;;;;4.00;1.23;;;21.90;99.90;;;;;;5012730;28;20029;-73
2021/07/31 05:27:44;;;;;;;4.05;1.50;;;21.90;99.90;;;;;;5012649;28;20026;-72
2021/07/31 05:30:10;;;;;;;3.00;1.48;;;21.90;99.90;;;;;;5012788;28;20116;-71
2021/07/31 05:32:36;;;;;;;3.38;1.20;;;21.90;99.90;;;;;;5012513;28;20022;-72
2021/07/31 05:35:02;;;;;;;3.35;1.30;;;21.90;99.90;;;;;;5012769;28;20041;-72
2021/07/31 05:37:28;;;;;;;3.20;1.35;;;21.90;99.90;;;;;;5024745;28;20025;-71
2021/07/31 05:39:54;;;;;;;2.05;1.30;;;21.90;99.90;;;;;;5012640;28;20104;-72
2021/07/31 05:42:19;;;;;;;1.77;1.15;;;21.90;99.90;;;;;;5012569;28;20473;-71
2021/07/31 05:44:45;;;;;;;3.80;1.45;;;21.90;99.90;;;;;;5014276;28;20105;-73
2021/07/31 05:47:11;;;;;;;1.98;1.25;;;21.90;99.90;;;;;;5030052;28;20029;-71
2021/07/31 05:49:36;;;;;;;2.28;1.10;;;21.90;99.90;;;;;;5031738;28;20041;-71
2021/07/31 05:52:04;;;;;;;3.20;1.50;;;22.00;99.90;;;;;;5030472;28;20026;-72
2021/07/31 05:54:31;;;;;;;3.75;1.25;;;21.90;99.90;;;;;;5031483;28;20029;-71
2021/07/31 05:56:56;;;;;;;2.45;1.30;;;21.90;99.90;;;;;;5013648;28;20022;-71
2021/07/31 05:59:22;;;;;;;1.52;1.10;;;21.90;99.90;;;;;;5012271;28;20030;-72
2021/07/31 06:01:47;;;;;;;3.40;1.30;;;21.90;99.90;;;;;;5013007;28;20033;-72
2021/07/31 06:04:13;;;;;;;2.53;1.17;;;21.90;99.90;;;;;;5012169;28;20061;-71
2021/07/31 06:06:38;;;;;;;3.58;1.25;;;21.90;99.90;;;;;;4998618;28;20021;-71
2021/07/31 06:09:04;;;;;;;3.13;1.48;;;22.00;99.90;;;;;;5018932;28;20038;-71
2021/07/31 06:11:30;;;;;;;3.33;1.42;;;21.90;99.90;;;;;;5011739;28;20100;-71
2021/07/31 06:13:55;;;;;;;3.33;1.35;;;21.90;99.90;;;;;;5010964;28;20037;-71
2021/07/31 06:16:21;;;;;;;2.75;1.50;;;21.90;99.90;;;;;;5015854;28;20112;-71
2021/07/31 06:18:46;;;;;;;2.88;1.35;;;22.00;99.90;;;;;;5030865;28;20029;-71
2021/07/31 06:21:17;;;;;;;2.80;1.33;;;21.90;99.90;;;;;;5031610;28;20033;-70
2021/07/31 06:23:43;;;;;;;3.13;1.30;;;21.90;99.90;;;;;;5031398;28;20022;-71
2021/07/31 06:26:09;;;;;;;2.60;1.30;;;21.90;99.90;;;;;;5029844;28;20029;-71
2021/07/31 06:28:35;;;;;;;1.83;1.13;;;21.90;99.90;;;;;;5031353;28;20485;-70
2021/07/31 06:31:01;;;;;;;2.70;1.23;;;21.90;99.90;;;;;;5031321;28;20049;-71
2021/07/31 06:33:27;;;;;;;2.50;1.20;;;21.90;99.90;;;;;;5031545;28;20033;-71
2021/07/31 06:35:53;;;;;;;2.38;1.23;;;21.90;99.90;;;;;;5029419;28;20044;-71
2021/07/31 06:38:18;;;;;;;2.08;1.20;;;21.90;99.90;;;;;;5005987;28;20116;-70
2021/07/31 06:40:44;;;;;;;2.78;1.33;;;21.90;99.90;;;;;;5021264;28;20037;-71
2021/07/31 06:43:10;;;;;;;3.25;1.40;;;21.90;99.90;;;;;;5029799;28;20513;-71
2021/07/31 06:45:35;;;;;;;3.28;1.10;;;21.90;99.90;;;;;;5029172;28;20112;-71
2021/07/31 06:48:01;;;;;;;2.00;1.15;;;21.90;99.90;;;;;;5031323;28;20606;-72
2021/07/31 06:50:26;;;;;;;2.38;1.27;;;21.90;99.90;;;;;;5032874;28;20108;-74
2021/07/31 06:52:53;;;;;;;2.60;1.20;;;21.90;99.90;;;;;;5035382;28;20083;-72
2021/07/31 06:55:19;;;;;;;2.90;1.30;;;21.90;99.90;;;;;;5018886;28;20026;-72
2021/07/31 06:57:44;;;;;;;3.85;1.55;;;21.90;99.90;;;;;;5034288;28;20025;-71
2021/07/31 07:00:11;;;;;;;4.53;1.40;;;21.90;99.90;;;;;;5034651;28;20048;-70
2021/07/31 07:02:37;;;;;;;3.45;1.55;;;22.00;99.90;;;;;;5033670;28;20053;-71
2021/07/31 07:05:03;;;;;;;5.18;1.60;;;22.00;99.90;;;;;;5035130;28;20056;-71
2021/07/31 07:07:28;;;;;;;5.22;2.03;;;22.00;99.90;;;;;;5017347;28;20017;-71
2021/07/31 07:09:54;;;;;;;7.80;2.15;;;22.10;99.90;;;;;;5021174;28;20030;-70
2021/07/31 07:12:20;;;;;;;4.93;2.17;;;22.10;99.90;;;;;;5033329;28;20028;-73
2021/07/31 07:14:45;;;;;;;15.15;2.13;;;22.10;99.90;;;;;;5023282;28;20049;-72
2021/07/31 07:17:11;;;;;;;5.75;2.20;;;22.20;99.90;;;;;;5015183;28;20018;-73
2021/07/31 07:19:36;;;;;;;5.25;1.83;;;22.20;99.90;;;;;;5015765;28;20030;-70
2021/07/31 07:22:02;;;;;;;4.93;2.17;;;22.30;99.90;;;;;;5015157;28;20030;-69
2021/07/31 07:24:28;;;;;;;7.00;1.88;;;22.40;99.90;;;;;;5015534;28;20156;-71
2021/07/31 07:26:53;;;;;;;9.65;2.53;;;22.50;99.90;;;;;;5015056;28;20022;-73
2021/07/31 07:29:19;;;;;;;7.38;2.63;;;22.60;99.90;;;;;;5014940;28;20076;-73
2021/07/31 07:31:45;;;;;;;6.70;2.40;;;22.60;99.90;;;;;;5014795;28;20030;-69
2021/07/31 07:34:10;;;;;;;8.13;2.53;;;22.60;99.90;;;;;;5014880;28;20030;-70
2021/07/31 07:36:36;;;;;;;7.43;2.00;;;22.60;99.90;;;;;;5014654;28;20045;-70
2021/07/31 07:39:02;;;;;;;10.90;2.45;;;22.60;99.90;;;;;;5014802;28;20037;-70
2021/07/31 07:41:27;;;;;;;7.65;2.60;;;22.50;99.90;;;;;;5015944;28;20026;-69
2021/07/31 07:43:53;;;;;;;7.38;2.67;;;22.50;99.90;;;;;;5015313;28;20505;-71
2021/07/31 07:46:20;;;;;;;5.22;2.22;;;22.50;99.90;;;;;;5014612;28;20116;-69
2021/07/31 07:48:46;;;;;;;5.88;2.47;;;22.40;99.90;;;;;;5014272;28;20072;-70
2021/07/31 07:51:12;;;;;;;6.82;2.30;;;22.40;99.90;;;;;;5014618;28;20030;-69
2021/07/31 07:53:39;;;;;;;8.43;2.22;;;22.40;99.90;;;;;;5014228;28;20104;-69
2021/07/31 07:56:05;;;;;;;7.10;2.20;;;22.30;99.90;;;;;;5014566;28;20025;-70
2021/07/31 07:58:30;;;;;;;6.65;2.80;;;22.30;99.90;;;;;;5014056;28;20080;-70
2021/07/31 08:00:56;;;;;;;6.55;2.40;;;22.30;99.90;;;;;;5013424;28;20032;-69
2021/07/31 08:03:22;;;;;;;6.50;2.63;;;22.40;99.90;;;;;;5032349;28;20469;-69
2021/07/31 08:05:48;;;;;;;6.80;2.42;;;22.40;99.90;;;;;;5033706;28;20026;-69
2021/07/31 08:08:13;;;;;;;8.43;2.67;;;22.40;99.90;;;;;;5033764;28;20037;-69
2021/07/31 08:10:39;;;;;;;7.20;2.63;;;22.40;99.90;;;;;;5033737;28;20026;-68
2021/07/31 08:13:05;;;;;;;7.60;2.65;;;22.30;99.90;;;;;;5034014;28;20028;-69
2021/07/31 08:15:31;;;;;;;8.68;2.65;;;22.40;99.90;;;;;;5031937;28;20033;-69
2021/07/31 08:17:57;;;;;;;4.82;2.10;;;22.40;99.90;;;;;;5034090;28;20029;-71
2021/07/31 08:20:23;;;;;;;6.13;2.45;;;22.40;99.90;;;;;;5033918;28;20026;-71
2021/07/31 08:22:48;;;;;;;6.22;2.38;;;22.50;99.90;;;;;;5016465;28;20387;-68
2021/07/31 08:25:14;;;;;;;3.38;2.00;;;22.50;99.90;;;;;;5014034;28;20021;-69
2021/07/31 08:27:40;;;;;;;3.47;1.88;;;22.50;99.90;;;;;;5013779;28;20029;-68
2021/07/31 08:30:07;;;;;;;5.85;2.35;;;22.40;99.90;;;;;;5014044;28;20033;-69
2021/07/31 08:32:33;;;;;;;4.75;1.77;;;22.40;99.90;;;;;;5013464;28;20032;-69
2021/07/31 08:35:00;;;;;;;4.18;2.00;;;22.40;99.90;;;;;;5014013;28;20466;-68
2021/07/31 08:37:26;;;;;;;4.90;2.10;;;22.30;99.90;;;;;;5014193;28;20398;-69
2021/07/31 08:39:51;;;;;;;3.40;1.90;;;22.30;99.90;;;;;;5014452;28;20305;-70
2021/07/31 08:42:17;;;;;;;4.63;1.52;;;22.40;99.90;;;;;;5013775;28;20030;-68
2021/07/31 08:44:42;;;;;;;3.95;1.67;;;22.30;99.90;;;;;;5013479;28;20031;-69
2021/07/31 08:47:09;;;;;;;4.22;1.70;;;22.20;99.90;;;;;;5013538;28;20022;-69
2021/07/31 08:49:43;;;;;;;5.15;1.77;;;22.20;99.90;;;;;;5013097;28;20137;-68
2021/07/31 08:52:09;;;;;;;3.67;1.98;;;22.20;99.90;;;;;;5013714;28;20382;-68
2021/07/31 08:54:39;;;;;;;3.10;1.58;;;22.30;99.90;;;;;;5013209;28;20433;-69
2021/07/31 08:57:08;;;;;;;2.92;1.58;;;22.30;99.90;;;;;;5013463;28;20080;-69
2021/07/31 08:59:34;;;;;;;6.07;2.10;;;22.30;99.90;;;;;;5013065;28;20032;-68
2021/07/31 09:02:00;;;;;;;4.00;1.77;;;22.40;99.90;;;;;;5014260;28;20029;-68
2021/07/31 09:04:27;;;;;;;4.53;1.90;;;22.40;99.90;;;;;;5013503;28;20382;-68
2021/07/31 09:06:53;;;;;;;5.53;2.10;;;22.30;99.90;;;;;;5013041;28;20109;-68
2021/07/31 09:09:27;;;;;;;3.05;1.70;;;22.30;99.90;;;;;;5013016;28;20177;-68
2021/07/31 09:12:00;;;;;;;;;;;22.30;99.90;;;;;;4995782;28;20482;-68
2021/07/31 09:14:26;;;;;;;4.78;1.95;;;22.20;99.90;;;;;;5013749;28;20361;-68
2021/07/31 09:16:52;;;;;;;4.80;1.98;;;22.30;99.90;;;;;;5012846;28;20068;-69
2021/07/31 09:19:18;;;;;;;4.28;1.90;;;22.20;99.90;;;;;;5013999;28;20069;-68
2021/07/31 09:21:45;;;;;;;5.93;1.95;;;22.10;99.90;;;;;;5012781;28;20029;-70
2021/07/31 09:24:22;;;;;;;4.47;1.98;;;22.10;99.90;;;;;;5014501;28;20485;-69
2021/07/31 09:26:50;;;;;;;5.50;2.28;;;22.10;99.90;;;;;;5020012;28;20345;-68
2021/07/31 09:29:19;;;;;;;6.57;2.10;;;22.10;99.90;;;;;;5012816;28;20069;-69
2021/07/31 09:31:44;;;;;;;5.95;2.30;;;22.00;99.90;;;;;;5013632;28;20032;-69
2021/07/31 09:34:11;;;;;;;6.40;2.33;;;22.00;99.90;;;;;;5032524;28;20033;-69
2021/07/31 09:36:38;;;;;;;4.72;2.28;;;22.20;99.90;;;;;;5032209;28;20025;-69
2021/07/31 09:39:06;;;;;;;6.20;2.10;;;22.20;99.90;;;;;;5032442;28;20029;-68
2021/07/31 09:41:39;;;;;;;4.20;2.15;;;22.30;99.90;;;;;;5040107;28;20065;-69
2021/07/31 09:44:06;;;;;;;9.13;2.35;;;22.30;99.90;;;;;;5015594;28;20030;-69
2021/07/31 09:46:33;;;;;;;4.15;1.88;;;22.30;99.90;;;;;;5032002;28;20084;-69
2021/07/31 09:49:00;;;;;;;4.07;1.90;;;22.30;99.90;;;;;;5034339;28;20104;-68
2021/07/31 09:51:40;;;;;;;4.72;2.10;;;22.30;99.90;;;;;;5031842;28;20509;-69
2021/07/31 09:54:09;;;;;;;6.47;1.77;;;22.30;99.90;;;;;;5031863;28;20036;-69
2021/07/31 09:56:40;;;;;;;4.47;1.77;;;22.10;99.90;;;;;;5034146;28;20043;-69
2021/07/31 09:59:07;;;;;;;3.00;1.77;;;22.10;99.90;;;;;;5036376;28;20052;-68
2021/07/31 10:01:40;;;;;;;3.33;1.48;;;22.10;99.90;;;;;;5031971;28;20036;-68
2021/07/31 10:04:06;;;;;;;3.00;1.70;;;22.20;99.90;;;;;;5032042;28;20083;-68
2021/07/31 10:06:33;;;;;;;4.05;1.73;;;22.10;99.90;;;;;;5033712;28;20508;-69
2021/07/31 10:09:02;;;;;;;3.53;1.45;;;22.10;99.90;;;;;;5031964;28;20056;-68
2021/07/31 10:11:27;;;;;;;5.47;1.83;;;22.20;99.90;;;;;;5047878;28;20064;-68
2021/07/31 10:13:55;;;;;;;3.75;1.60;;;22.30;99.90;;;;;;5051466;28;20508;-68
2021/07/31 10:16:21;;;;;;;5.28;1.67;;;22.30;99.90;;;;;;5038647;28;20478;-69
2021/07/31 10:19:07;;;;;;;4.80;1.60;;;22.40;99.90;;;;;;5051368;28;20091;-69
2021/07/31 10:21:59;;;;;;;5.65;1.95;;;22.40;99.90;;;;;;5044121;28;20049;-71
2021/07/31 10:24:27;;;;;;;3.03;1.70;;;22.40;99.90;;;;;;5031525;28;20025;-70
2021/07/31 10:27:15;;;;;;;4.15;1.70;;;22.40;99.90;;;;;;5031326;28;20029;-68
2021/07/31 10:29:48;;;;;;;3.30;1.80;;;22.40;99.90;;;;;;5016895;28;20029;-70
2021/07/31 10:32:19;;;;;;;2.75;1.48;;;22.40;99.90;;;;;;5040458;28;20027;-71
2021/07/31 10:34:57;;;;;;;3.40;1.73;;;22.40;99.90;;;;;;5051279;28;20080;-68
2021/07/31 10:37:32;;;;;;;3.25;1.80;;;22.40;99.90;;;;;;5051133;28;20017;-70
2021/07/31 10:40:12;;;;;;;3.85;1.80;;;22.50;99.90;;;;;;5051637;28;20057;-69
2021/07/31 10:42:52;;;;;;;3.08;1.92;;;22.50;99.90;;;;;;5043537;28;20052;-71
2021/07/31 10:45:30;;;;;;;2.88;1.48;;;22.40;99.90;;;;;;5018481;28;20033;-71
2021/07/31 10:47:58;;;;;;;3.35;1.77;;;22.50;99.90;;;;;;5031600;28;20108;-70
2021/07/31 10:50:24;;;;;;;4.00;1.70;;;22.50;99.90;;;;;;5031839;28;20022;-70
2021/07/31 10:52:56;;;;;;;3.08;1.88;;;22.50;99.90;;;;;;5022108;28;20044;-70
2021/07/31 10:55:24;;;;;;;3.70;1.80;;;22.50;99.90;;;;;;5011652;28;20040;-70
2021/07/31 10:57:52;;;;;;;2.83;1.70;;;22.60;99.90;;;;;;5011477;28;20084;-69
2021/07/31 11:00:24;;;;;;;2.90;1.67;;;22.60;99.90;;;;;;5011430;28;20052;-70
2021/07/31 11:02:50;;;;;;;2.67;1.60;;;22.60;99.90;;;;;;5011335;28;20022;-70
2021/07/31 11:05:15;;;;;;;3.97;1.80;;;22.60;99.90;;;;;;5011539;28;20037;-69
2021/07/31 11:07:56;;;;;;;2.97;1.75;;;22.60;99.90;;;;;;5020877;28;20036;-69
2021/07/31 11:10:34;;;;;;;3.03;1.80;;;22.60;99.90;;;;;;5031139;28;20401;-69
2021/07/31 11:13:01;;;;;;;2.58;1.63;;;22.60;99.90;;;;;;5031173;28;20017;-69
2021/07/31 11:15:26;;;;;;;5.35;1.98;;;22.70;99.90;;;;;;5029847;28;20076;-70
2021/07/31 11:17:57;;;;;;;4.18;1.75;;;22.60;99.90;;;;;;5030851;28;20053;-70
2021/07/31 11:20:25;;;;;;;3.55;1.55;;;22.60;99.90;;;;;;5031168;28;20469;-70
2021/07/31 11:22:52;;;;;;;3.53;1.30;;;22.60;99.90;;;;;;5023961;28;20025;-75
2021/07/31 11:25:20;;;;;;;3.78;1.67;;;22.50;99.90;;;;;;5020632;28;20864;-74
2021/07/31 11:28:00;;;;;;;5.20;1.50;;;22.60;99.90;;;;;;5030053;28;20029;-74
2021/07/31 11:30:40;;;;;;;3.17;1.67;;;22.50;99.90;;;;;;5048688;28;20120;-74
2021/07/31 11:33:24;;;;;;;4.50;1.55;;;22.50;99.90;;;;;;5050324;28;20021;-73
2021/07/31 11:35:55;;;;;;;4.00;1.73;;;22.50;99.90;;;;;;5033616;28;20038;-73
2021/07/31 11:38:38;;;;;;;5.15;2.00;;;22.60;99.90;;;;;;5033888;28;20040;-74
2021/07/31 11:41:14;;;;;;;3.93;1.60;;;22.70;99.90;;;;;;5031322;28;20048;-74
2021/07/31 11:43:59;;;;;;;4.13;1.60;;;22.70;99.90;;;;;;5023226;28;20104;-74
2021/07/31 11:46:31;;;;;;;4.10;1.88;;;22.80;99.90;;;;;;5024248;28;20476;-73
2021/07/31 11:48:58;;;;;;;6.93;1.90;;;22.80;99.90;;;;;;5023013;28;20471;-74
2021/07/31 11:51:24;;;;;;;3.35;1.95;;;22.90;99.90;;;;;;5022359;28;20094;-72
2021/07/31 11:53:50;;;;;;;5.32;2.00;;;22.90;99.90;;;;;;5023975;28;20049;-73
2021/07/31 11:56:23;;;;;;;3.63;1.70;;;22.90;99.90;;;;;;5021935;28;20021;-75
2021/07/31 11:58:54;;;;;;;4.45;2.03;;;22.90;99.90;;;;;;5003882;28;20375;-75
2021/07/31 12:01:20;;;;;;;3.58;1.80;;;23.00;99.90;;;;;;5022116;28;20443;-73
2021/07/31 12:03:56;;;;;;;4.00;1.63;;;23.00;99.90;;;;;;5023295;28;20096;-73
2021/07/31 12:06:33;;;;;;;3.63;1.60;;;23.00;99.90;;;;;;5023109;28;20496;-72
2021/07/31 12:09:12;;;;;;;4.03;2.03;;;23.00;99.90;;;;;;5022820;28;20030;-75
2021/07/31 12:11:42;;;;;;;5.22;2.00;;;23.00;99.90;;;;;;5011450;28;20373;-73
2021/07/31 12:14:35;;;;;;;3.75;1.83;;;23.00;99.90;;;;;;5033460;28;20040;-73
2021/07/31 12:17:12;;;;;;;4.45;1.83;;;23.00;99.90;;;;;;5039469;28;20025;-72
2021/07/31 12:20:06;;;;;;;3.28;1.73;;;23.00;99.90;;;;;;5052954;28;20021;-73
2021/07/31 12:22:36;;;;;;;3.25;1.90;;;23.00;99.90;;;;;;5049879;28;20029;-75
2021/07/31 12:25:15;;;;;;;2.83;1.70;;;23.00;99.90;;;;;;5053127;28;20511;-75
2021/07/31 12:28:05;;;;;;;3.10;1.60;;;23.00;99.90;;;;;;5035025;28;20017;-73
2021/07/31 12:30:39;;;;;;;2.83;1.83;;;23.10;99.90;;;;;;5042626;28;20041;-74
2021/07/31 12:33:05;;;;;;;4.13;1.90;;;23.20;99.90;;;;;;5032349;28;20047;-73
2021/07/31 12:35:44;;;;;;;4.32;1.63;;;23.20;99.90;;;;;;5052476;28;20537;-74
2021/07/31 12:38:15;;;;;;;3.45;1.73;;;23.30;99.90;;;;;;5055334;28;20017;-75
2021/07/31 12:40:41;;;;;;;3.55;1.70;;;23.30;99.90;;;;;;5032559;28;20022;-75
2021/07/31 12:43:12;;;;;;;2.90;1.67;;;23.30;99.90;;;;;;5032937;28;20032;-75
2021/07/31 12:45:38;;;;;;;4.30;1.83;;;23.30;99.90;;;;;;5032807;28;20036;-75
2021/07/31 12:48:04;;;;;;;3.38;1.70;;;23.30;99.90;;;;;;5031694;28;20026;-77
2021/07/31 12:50:33;;;;;;;3.58;1.67;;;23.20;99.90;;;;;;5014695;28;20030;-77